createdAt,value
2019-05-11T00:00:44.142Z,62.00
2019-05-11T00:03:11.786Z,62.70
2019-05-11T00:05:39.420Z,63.30
2019-05-11T00:08:07.223Z,63.00
2019-05-11T00:10:34.837Z,63.00
2019-05-11T00:13:04.468Z,62.60
2019-05-11T00:15:32.072Z,62.90
2019-05-11T00:17:59.720Z,62.60
2019-05-11T00:20:27.481Z,62.10
2019-05-11T00:22:55.123Z,62.40
2019-05-11T00:25:23.793Z,62.90
2019-05-11T00:27:51.622Z,63.20
2019-05-11T00:30:19.381Z,63.20
2019-05-11T00:32:47.046Z,62.30
2019-05-11T00:35:14.854Z,62.60
2019-05-11T00:37:42.489Z,62.70
2019-05-11T00:40:14.762Z,62.80
2019-05-11T00:42:41.206Z,62.00
2019-05-11T00:45:08.935Z,62.10
2019-05-11T00:47:36.587Z,62.10
2019-05-11T00:50:05.907Z,62.00
2019-05-11T00:52:33.573Z,62.00
2019-05-11T00:55:01.264Z,62.00
2019-05-11T00:57:29.007Z,62.10
2019-05-11T00:59:56.669Z,61.80
2019-05-11T01:02:24.340Z,62.10
2019-05-11T01:04:51.948Z,62.30
2019-05-11T01:07:19.625Z,62.00
2019-05-11T01:09:47.293Z,62.30
2019-05-11T01:12:15.013Z,62.00
2019-05-11T01:14:42.646Z,62.00
2019-05-11T01:17:10.296Z,62.00
2019-05-11T01:19:38.116Z,61.50
2019-05-11T01:22:05.757Z,61.70
2019-05-11T01:24:33.417Z,61.80
2019-05-11T01:27:01.155Z,61.40
2019-05-11T01:29:28.783Z,62.00
2019-05-11T01:31:56.455Z,62.00
2019-05-11T01:34:24.143Z,62.40
2019-05-11T01:36:51.788Z,62.80
2019-05-11T01:39:19.571Z,62.20
2019-05-11T01:41:47.197Z,63.00
2019-05-11T01:44:14.837Z,63.00
2019-05-11T01:46:42.452Z,63.20
2019-05-11T01:49:10.101Z,63.50
2019-05-11T01:51:37.704Z,63.30
2019-05-11T01:54:05.354Z,63.50
2019-05-11T01:56:33.009Z,62.90
2019-05-11T01:59:00.964Z,62.70
2019-05-11T02:01:28.593Z,62.80
2019-05-11T02:03:56.205Z,62.90
2019-05-11T02:06:23.858Z,62.50
2019-05-11T02:08:51.513Z,61.90
2019-05-11T02:11:19.211Z,62.30
2019-05-11T02:13:46.828Z,63.00
2019-05-11T02:16:14.462Z,63.20
2019-05-11T02:18:42.068Z,63.90
2019-05-11T02:21:09.709Z,64.00
2019-05-11T02:23:37.337Z,63.60
2019-05-11T02:26:04.974Z,64.20
2019-05-11T02:28:32.613Z,64.40
2019-05-11T02:31:00.286Z,63.70
2019-05-11T02:33:27.930Z,64.30
2019-05-11T02:35:55.691Z,64.10
2019-05-11T02:38:23.318Z,64.20
2019-05-11T02:40:50.962Z,64.70
2019-05-11T02:43:18.688Z,64.20
2019-05-11T02:45:46.611Z,64.30
2019-05-11T02:48:14.232Z,64.80
2019-05-11T02:50:43.199Z,64.60
2019-05-11T02:53:10.856Z,64.50
2019-05-11T02:55:38.801Z,64.80
2019-05-11T02:58:06.983Z,64.80
2019-05-11T03:00:37.167Z,65.00
2019-05-11T03:03:04.842Z,64.70
2019-05-11T03:05:32.477Z,64.70
2019-05-11T03:08:00.091Z,64.60
2019-05-11T03:10:27.734Z,64.70
2019-05-11T03:12:55.337Z,64.40
2019-05-11T03:15:23.010Z,64.80
2019-05-11T03:17:50.607Z,65.10
2019-05-11T03:20:18.257Z,65.10
2019-05-11T03:22:45.893Z,64.90
2019-05-11T03:25:13.526Z,65.20
2019-05-11T03:27:41.186Z,64.90
2019-05-11T03:30:09.557Z,64.80
2019-05-11T03:32:37.290Z,64.60
2019-05-11T03:35:05.094Z,64.50
2019-05-11T03:37:32.802Z,64.60
2019-05-11T03:40:00.442Z,64.40
2019-05-11T03:42:28.048Z,64.70
2019-05-11T03:44:55.694Z,65.00
2019-05-11T03:47:23.347Z,65.20
2019-05-11T03:49:51.006Z,65.40
2019-05-11T03:52:18.716Z,66.00
2019-05-11T03:54:46.756Z,65.60
2019-05-11T03:57:14.410Z,64.20
2019-05-11T03:59:42.105Z,64.10
2019-05-11T04:02:10.758Z,64.40
2019-05-11T04:04:38.373Z,64.10
2019-05-11T04:07:06.021Z,63.60
2019-05-11T04:09:33.687Z,63.80
2019-05-11T04:12:01.293Z,64.00
2019-05-11T04:14:31.867Z,63.70
2019-05-11T04:17:21.209Z,64.20
2019-05-11T04:20:07.941Z,64.30
2019-05-11T04:22:54.362Z,64.60
2019-05-11T04:25:41.068Z,64.80
2019-05-11T04:28:27.187Z,64.20
2019-05-11T04:31:13.570Z,64.50
2019-05-11T04:33:59.877Z,64.30
2019-05-11T04:36:46.085Z,64.70
2019-05-11T04:39:32.410Z,64.80
2019-05-11T04:42:18.646Z,64.90
2019-05-11T04:45:06.472Z,65.20
2019-05-11T04:47:52.363Z,65.00
2019-05-11T04:50:38.331Z,64.80
2019-05-11T04:53:24.333Z,65.50
2019-05-11T04:56:10.461Z,65.00
2019-05-11T04:58:56.622Z,64.40
2019-05-11T05:01:42.754Z,64.00
2019-05-11T05:04:28.764Z,64.70
2019-05-11T05:07:16.567Z,65.10
2019-05-11T05:10:02.914Z,65.30
2019-05-11T05:12:51.610Z,64.90
2019-05-11T05:15:36.980Z,65.00
2019-05-11T05:18:23.077Z,64.90
2019-05-11T05:21:09.245Z,65.30
2019-05-11T05:23:55.533Z,65.60
2019-05-11T05:26:41.893Z,65.80
2019-05-11T05:29:28.301Z,67.30
2019-05-11T05:32:14.554Z,66.80
2019-05-11T05:35:00.941Z,66.90
2019-05-11T05:37:47.192Z,67.10
2019-05-11T05:40:33.137Z,67.90
2019-05-11T05:43:27.198Z,67.70
2019-05-11T05:46:07.333Z,67.90
2019-05-11T05:48:53.302Z,68.50
2019-05-11T05:51:39.411Z,67.80
2019-05-11T05:54:25.451Z,67.50
2019-05-11T05:57:11.370Z,67.10
2019-05-11T05:59:57.575Z,67.40
2019-05-11T06:02:43.598Z,67.70
2019-05-11T06:05:29.577Z,68.20
2019-05-11T06:08:15.667Z,68.60
2019-05-11T06:11:01.738Z,68.40
2019-05-11T06:13:47.859Z,67.80
2019-05-11T06:16:33.796Z,67.70
2019-05-11T06:19:19.978Z,69.00
2019-05-11T06:22:06.278Z,68.60
2019-05-11T06:24:54.331Z,68.30
2019-05-11T06:27:40.485Z,68.30
2019-05-11T06:30:29.844Z,68.30
2019-05-11T06:33:16.441Z,69.00
2019-05-11T06:36:03.749Z,68.30
2019-05-11T06:38:50.093Z,67.90
2019-05-11T06:41:36.768Z,67.70
2019-05-11T06:44:22.917Z,68.50
2019-05-11T06:47:09.277Z,68.30
2019-05-11T06:49:55.322Z,67.70
2019-05-11T06:52:41.621Z,68.20
2019-05-11T06:55:28.015Z,68.50
2019-05-11T06:58:14.293Z,68.30
2019-05-11T07:01:00.710Z,67.70
2019-05-11T07:03:47.435Z,67.90
2019-05-11T07:06:33.670Z,67.60
2019-05-11T07:09:19.919Z,68.70
2019-05-11T07:12:06.464Z,68.80
2019-05-11T07:14:52.712Z,68.00
2019-05-11T07:17:40.847Z,67.40
2019-05-11T07:20:27.487Z,66.90
2019-05-11T07:23:13.661Z,68.00
2019-05-11T07:26:00.368Z,67.50
2019-05-11T07:28:46.982Z,66.70
2019-05-11T07:31:33.188Z,67.00
2019-05-11T07:34:19.497Z,66.80
2019-05-11T07:37:08.066Z,66.70
2019-05-11T07:39:54.349Z,66.10
2019-05-11T07:42:40.681Z,64.50
2019-05-11T07:45:28.344Z,64.70
2019-05-11T07:48:18.641Z,65.30
2019-05-11T07:51:05.217Z,66.00
2019-05-11T07:53:53.365Z,64.40
2019-05-11T07:56:39.486Z,63.40
2019-05-11T07:59:25.695Z,62.30
2019-05-11T08:02:13.810Z,63.60
2019-05-11T08:05:00.006Z,61.60
2019-05-11T08:07:48.135Z,61.00
2019-05-11T08:10:34.624Z,61.00
2019-05-11T08:13:20.742Z,59.00
2019-05-11T08:16:08.233Z,56.90
2019-05-11T08:18:54.196Z,59.60
2019-05-11T08:21:40.450Z,55.80
2019-05-11T08:24:28.440Z,57.10
2019-05-11T08:27:14.617Z,57.30
2019-05-11T08:30:00.647Z,55.10
2019-05-11T08:32:49.101Z,54.90
2019-05-11T08:35:34.666Z,53.30
2019-05-11T08:38:20.661Z,52.20
2019-05-11T08:41:08.092Z,52.20
2019-05-11T08:43:54.148Z,52.00
2019-05-11T08:46:40.329Z,53.30
2019-05-11T08:49:28.456Z,52.50
2019-05-11T08:52:14.301Z,53.40
2019-05-11T08:55:00.495Z,51.70
2019-05-11T08:57:47.952Z,53.00
2019-05-11T09:00:33.901Z,51.20
2019-05-11T09:03:20.073Z,50.60
2019-05-11T09:06:08.183Z,52.00
2019-05-11T09:08:54.174Z,51.30
2019-05-11T09:11:41.315Z,51.80
2019-05-11T09:14:28.331Z,51.30
2019-05-11T09:17:14.486Z,50.10
2019-05-11T09:20:00.694Z,50.30
2019-05-11T09:22:48.457Z,50.30
2019-05-11T09:25:34.808Z,49.60
2019-05-11T09:28:20.926Z,50.90
2019-05-11T09:31:08.525Z,51.80
2019-05-11T09:33:54.958Z,49.50
2019-05-11T09:36:41.389Z,49.10
2019-05-11T09:39:28.914Z,48.60
2019-05-11T09:42:15.192Z,49.70
2019-05-11T09:45:01.600Z,49.90
2019-05-11T09:47:49.853Z,50.20
2019-05-11T09:50:35.982Z,48.40
2019-05-11T09:53:22.202Z,47.60
2019-05-11T09:56:08.551Z,48.10
2019-05-11T09:58:58.036Z,44.70
2019-05-11T10:01:44.127Z,45.50
2019-05-11T10:04:30.589Z,47.00
2019-05-11T10:07:18.131Z,46.80
2019-05-11T10:10:05.466Z,45.90
2019-05-11T10:12:53.159Z,46.20
2019-05-11T10:15:39.581Z,46.30
2019-05-11T10:18:28.154Z,46.30
2019-05-11T10:21:14.424Z,47.00
2019-05-11T10:24:01.029Z,45.00
2019-05-11T10:26:48.641Z,44.00
2019-05-11T10:29:34.954Z,42.90
2019-05-11T10:32:21.133Z,41.70
2019-05-11T10:35:08.164Z,41.50
2019-05-11T10:37:54.369Z,43.80
2019-05-11T10:40:40.821Z,40.70
2019-05-11T10:43:28.701Z,42.00
2019-05-11T10:46:19.052Z,42.30
2019-05-11T10:49:02.581Z,41.90
2019-05-11T10:51:48.744Z,42.40
2019-05-11T10:54:34.930Z,41.40
2019-05-11T10:57:21.145Z,44.40
2019-05-11T11:00:08.976Z,41.70
2019-05-11T11:02:54.839Z,42.20
2019-05-11T11:05:41.049Z,42.10
2019-05-11T11:08:27.813Z,42.20
2019-05-11T11:11:14.133Z,40.80
2019-05-11T11:14:01.251Z,41.00
2019-05-11T11:16:47.998Z,42.30
2019-05-11T11:19:34.276Z,43.70
2019-05-11T11:22:35.822Z,40.80
2019-05-11T11:25:08.861Z,43.00
2019-05-11T11:27:55.142Z,42.60
2019-05-11T11:30:41.377Z,40.60
2019-05-11T11:33:27.770Z,40.40
2019-05-11T11:36:14.161Z,40.80
2019-05-11T11:39:00.281Z,42.00
2019-05-11T11:41:48.389Z,42.30
2019-05-11T11:44:34.331Z,41.90
2019-05-11T11:47:21.759Z,42.00
2019-05-11T11:50:09.284Z,43.00
2019-05-11T11:52:57.690Z,42.50
2019-05-11T11:55:43.723Z,42.70
2019-05-11T11:58:29.656Z,41.40
2019-05-11T12:01:15.710Z,41.40
2019-05-11T12:04:01.882Z,41.70
2019-05-11T12:06:49.026Z,41.50
2019-05-11T12:09:37.695Z,41.60
2019-05-11T12:12:23.811Z,41.30
2019-05-11T12:15:09.748Z,39.80
2019-05-11T12:17:55.773Z,40.80
2019-05-11T12:20:42.650Z,41.90
2019-05-11T12:23:28.555Z,42.70
2019-05-11T12:26:14.586Z,48.40
2019-05-11T12:29:00.753Z,51.30
2019-05-11T12:31:48.537Z,51.60
2019-05-11T12:34:34.850Z,52.70
2019-05-11T12:37:22.081Z,53.70
2019-05-11T12:40:09.103Z,53.10
2019-05-11T12:42:55.111Z,53.60
2019-05-11T12:45:41.276Z,52.30
2019-05-11T12:48:28.481Z,49.10
2019-05-11T12:51:14.772Z,53.10
2019-05-11T12:54:00.920Z,48.40
2019-05-11T12:56:49.011Z,47.60
2019-05-11T12:59:35.051Z,49.80
2019-05-11T13:02:21.213Z,47.90
2019-05-11T13:05:08.716Z,44.60
2019-05-11T13:07:54.759Z,44.70
2019-05-11T13:10:40.988Z,46.00
2019-05-11T13:13:28.633Z,46.50
2019-05-11T13:16:15.193Z,45.70
2019-05-11T13:19:01.379Z,46.70
2019-05-11T13:21:48.649Z,44.20
2019-05-11T13:24:35.925Z,45.90
2019-05-11T13:27:22.237Z,45.20
2019-05-11T13:30:08.386Z,46.50
2019-05-11T13:32:54.718Z,45.90
2019-05-11T13:35:40.858Z,46.50
2019-05-11T13:38:28.263Z,46.10
2019-05-11T13:41:14.530Z,47.10
2019-05-11T13:44:00.725Z,51.00
2019-05-11T13:46:48.240Z,52.20
2019-05-11T13:49:34.354Z,52.30
2019-05-11T13:52:20.556Z,52.20
2019-05-11T13:55:07.741Z,52.80
2019-05-11T13:57:53.794Z,55.30
2019-05-11T14:00:40.000Z,60.10
2019-05-11T14:03:27.717Z,57.60
2019-05-11T14:06:15.409Z,58.30
2019-05-11T14:09:07.606Z,58.50
2019-05-11T14:11:53.396Z,58.40
2019-05-11T14:14:39.482Z,60.20
2019-05-11T14:17:27.937Z,60.00
2019-05-11T14:20:13.956Z,57.00
2019-05-11T14:23:00.788Z,56.10
2019-05-11T14:25:48.650Z,57.30
2019-05-11T14:28:35.009Z,56.10
2019-05-11T14:31:21.011Z,57.60
2019-05-11T14:34:08.905Z,56.80
2019-05-11T14:36:58.031Z,58.00
2019-05-11T14:39:43.953Z,58.10
2019-05-11T14:42:29.871Z,58.70
2019-05-11T14:45:18.496Z,61.10
2019-05-11T14:48:04.189Z,61.50
2019-05-11T14:50:50.215Z,61.80
2019-05-11T14:53:37.855Z,62.00
2019-05-11T14:56:24.000Z,61.90
2019-05-11T14:59:09.981Z,62.70
2019-05-11T15:01:58.179Z,62.30
2019-05-11T15:04:44.325Z,64.00
2019-05-11T15:07:30.391Z,62.70
2019-05-11T15:10:18.808Z,63.10
2019-05-11T15:13:05.122Z,62.00
2019-05-11T15:15:51.137Z,61.50
2019-05-11T15:18:41.765Z,61.40
2019-05-11T15:21:25.354Z,62.90
2019-05-11T15:24:11.589Z,63.10
2019-05-11T15:26:57.662Z,62.90
2019-05-11T15:29:43.761Z,62.30
2019-05-11T15:32:29.785Z,63.20
2019-05-11T15:35:18.198Z,62.90
2019-05-11T15:38:04.037Z,62.40
2019-05-11T15:40:51.137Z,60.50
2019-05-11T15:43:38.754Z,61.70
2019-05-11T15:46:24.871Z,59.20
2019-05-11T15:49:10.924Z,60.00
2019-05-11T15:51:57.930Z,60.70
2019-05-11T15:54:44.232Z,60.60
2019-05-11T15:57:30.188Z,60.60
2019-05-11T16:00:16.721Z,59.70
2019-05-11T16:03:03.044Z,61.10
2019-05-11T16:05:49.129Z,60.00
2019-05-11T16:08:37.484Z,59.60
2019-05-11T16:11:23.258Z,60.20
2019-05-11T16:14:09.225Z,60.50
2019-05-11T16:16:55.354Z,58.80
2019-05-11T16:19:41.372Z,60.00
2019-05-11T16:22:28.042Z,60.50
2019-05-11T16:25:13.941Z,60.10
2019-05-11T16:27:59.983Z,59.30
2019-05-11T16:30:48.044Z,59.10
2019-05-11T16:33:34.185Z,60.20
2019-05-11T16:36:20.230Z,60.40
2019-05-11T16:39:10.045Z,59.50
2019-05-11T16:41:57.690Z,58.20
2019-05-11T16:44:43.344Z,58.20
2019-05-11T16:47:29.463Z,59.40
2019-05-11T16:50:17.811Z,56.50
2019-05-11T16:53:04.029Z,55.50
2019-05-11T16:55:50.354Z,57.00
2019-05-11T16:58:40.668Z,55.70
2019-05-11T17:01:24.618Z,56.10
2019-05-11T17:04:10.565Z,55.40
2019-05-11T17:06:57.887Z,55.30
2019-05-11T17:09:44.809Z,55.30
2019-05-11T17:12:30.758Z,56.00
2019-05-11T17:15:18.644Z,55.60
2019-05-11T17:18:04.837Z,55.90
2019-05-11T17:20:50.951Z,55.40
2019-05-11T17:23:38.399Z,55.80
2019-05-11T17:26:24.536Z,55.20
2019-05-11T17:29:10.551Z,55.40
2019-05-11T17:31:57.999Z,56.00
2019-05-11T17:34:44.324Z,56.50
2019-05-11T17:37:30.401Z,57.20
2019-05-11T17:40:20.570Z,56.50
2019-05-11T17:43:04.714Z,55.70
2019-05-11T17:45:50.633Z,56.50
2019-05-11T17:48:38.604Z,57.50
2019-05-11T17:51:25.200Z,57.30
2019-05-11T17:54:11.531Z,56.90
2019-05-11T17:56:57.880Z,55.80
2019-05-11T17:59:44.233Z,55.90
2019-05-11T18:02:30.322Z,56.90
2019-05-11T18:05:17.913Z,55.90
2019-05-11T18:08:04.022Z,55.80
2019-05-11T18:10:50.017Z,56.70
2019-05-11T18:13:36.037Z,56.70
2019-05-11T18:16:22.262Z,56.80
2019-05-11T18:19:08.762Z,56.80
2019-05-11T18:21:54.964Z,55.80
2019-05-11T18:24:41.049Z,55.50
2019-05-11T18:27:27.873Z,56.20
2019-05-11T18:30:14.517Z,55.90
2019-05-11T18:33:00.648Z,55.80
2019-05-11T18:35:46.633Z,57.10
2019-05-11T18:38:32.868Z,57.00
2019-05-11T18:41:18.886Z,57.90
2019-05-11T18:44:05.125Z,58.40
2019-05-11T18:46:51.238Z,58.60
2019-05-11T18:49:38.158Z,59.10
2019-05-11T18:52:24.476Z,58.20
2019-05-11T18:55:10.670Z,57.60
2019-05-11T18:57:58.126Z,57.30
2019-05-11T19:00:44.216Z,57.50
2019-05-11T19:03:30.448Z,57.10
2019-05-11T19:06:18.423Z,58.20
2019-05-11T19:09:06.361Z,57.80
2019-05-11T19:11:52.583Z,57.50
2019-05-11T19:14:38.665Z,58.00
2019-05-11T19:17:24.693Z,57.80
2019-05-11T19:20:11.041Z,58.00
2019-05-11T19:22:59.030Z,58.20
2019-05-11T19:25:45.068Z,58.10
2019-05-11T19:28:31.613Z,56.90
2019-05-11T19:31:19.064Z,57.10
2019-05-11T19:34:05.357Z,56.50
2019-05-11T19:36:51.604Z,56.60
2019-05-11T19:39:38.435Z,55.60
2019-05-11T19:42:28.446Z,55.60
2019-05-11T19:45:14.922Z,56.00
2019-05-11T19:48:01.299Z,55.90
2019-05-11T19:51:02.753Z,56.70
2019-05-11T19:53:35.442Z,55.70
2019-05-11T19:56:22.565Z,55.80
2019-05-11T19:59:08.716Z,55.50
2019-05-11T20:01:57.933Z,56.10
2019-05-11T20:04:42.819Z,54.80
2019-05-11T20:07:31.906Z,54.50
2019-05-11T20:10:18.844Z,54.40
2019-05-11T20:13:05.008Z,54.40
2019-05-11T20:15:50.979Z,54.80
2019-05-11T20:18:36.989Z,54.90
2019-05-11T20:21:23.275Z,54.70
2019-05-11T20:24:09.340Z,54.80
2019-05-11T20:26:55.429Z,54.80
2019-05-11T20:29:41.517Z,54.70
2019-05-11T20:32:28.432Z,54.70
2019-05-11T20:35:14.746Z,54.80
2019-05-11T20:38:00.808Z,52.60
2019-05-11T20:40:48.469Z,53.20
2019-05-11T20:43:34.671Z,53.00
2019-05-11T20:46:20.766Z,52.80
2019-05-11T20:49:06.828Z,53.50
2019-05-11T20:51:52.929Z,53.80
2019-05-11T20:54:38.933Z,53.20
2019-05-11T20:57:24.974Z,52.80
2019-05-11T21:00:12.974Z,52.00
2019-05-11T21:02:59.192Z,52.70
2019-05-11T21:05:48.094Z,53.10
2019-05-11T21:08:34.037Z,52.50
2019-05-11T21:11:20.169Z,51.50
2019-05-11T21:14:07.976Z,52.10
2019-05-11T21:16:54.230Z,53.30
2019-05-11T21:19:42.635Z,53.40
2019-05-11T21:22:28.325Z,53.50
2019-05-11T21:25:18.175Z,53.50
2019-05-11T21:28:04.303Z,52.60
2019-05-11T21:30:50.170Z,52.70
2019-05-11T21:33:37.826Z,52.00
2019-05-11T21:36:23.986Z,52.20
2019-05-11T21:39:10.006Z,52.90
2019-05-11T21:41:58.176Z,52.80
2019-05-11T21:44:44.001Z,52.80
2019-05-11T21:47:29.969Z,53.40
2019-05-11T21:50:19.417Z,53.60
2019-05-11T21:53:10.114Z,53.90
2019-05-11T21:55:53.937Z,54.00
2019-05-11T21:58:39.938Z,54.40
2019-05-11T22:01:28.091Z,54.30
2019-05-11T22:04:14.163Z,55.20
2019-05-11T22:07:00.220Z,54.30
2019-05-11T22:09:46.318Z,54.80
2019-05-11T22:12:32.458Z,55.00
2019-05-11T22:15:20.674Z,55.30
2019-05-11T22:18:07.966Z,54.70
2019-05-11T22:20:54.342Z,55.60
2019-05-11T22:23:40.343Z,55.50
2019-05-11T22:26:28.557Z,55.40
2019-05-11T22:29:14.711Z,56.00
2019-05-11T22:32:00.762Z,56.40
2019-05-11T22:34:47.961Z,56.70
2019-05-11T22:37:34.144Z,57.30
2019-05-11T22:40:20.162Z,57.70
2019-05-11T22:43:08.769Z,57.60
2019-05-11T22:45:54.389Z,57.20
2019-05-11T22:48:40.460Z,57.10
2019-05-11T22:51:28.595Z,57.00
2019-05-11T22:54:14.679Z,57.30
2019-05-11T22:57:00.693Z,57.20
2019-05-11T22:59:46.748Z,57.70
2019-05-11T23:02:32.873Z,58.50
2019-05-11T23:05:18.912Z,59.00
2019-05-11T23:08:07.507Z,58.60
2019-05-11T23:10:53.294Z,57.90
2019-05-11T23:13:39.319Z,58.70
2019-05-11T23:16:25.449Z,58.40
2019-05-11T23:19:11.561Z,58.40
2019-05-11T23:21:58.656Z,58.40
2019-05-11T23:24:45.138Z,58.80
2019-05-11T23:27:31.208Z,58.80
2019-05-11T23:30:19.649Z,58.70
2019-05-11T23:33:07.959Z,58.60
2019-05-11T23:35:54.074Z,58.90
2019-05-11T23:38:40.218Z,58.50
2019-05-11T23:41:28.570Z,58.40
2019-05-11T23:44:14.382Z,58.00
2019-05-11T23:47:00.394Z,57.90
2019-05-11T23:49:47.946Z,58.10
2019-05-11T23:52:34.224Z,57.80
2019-05-11T23:55:20.175Z,57.70
2019-05-11T23:58:08.251Z,57.90
